LHBC 271045Z 30005KT 1800 -RA BR FEW004 OVC050 01/01 Q1017        

LHBP 271100Z 32005KT 3400 BR OVC004 01/00 Q1018 BECMG 5000        

LHDC 271045Z AUTO 31007KT 3500 BR NCD 02/01 Q1018 BECMG 5000 BR        

LHKE 271045Z 30008KT 1500 BR SCT007 OVC040 02/01 Q1018 R12/29//95 NOSIG RMK AMB        

LHPA 271045Z 22002KT 0500 R16/0800V1300D FG OVC002 M01/M01 Q1019 NOSIG RMK RED        

LHPP 271045Z 28004KT 3000 BR BKN016 03/01 Q1018        

LHPR 271045Z AUTO VRB03KT 3100 BR OVC002 M01/M01 Q1020        

LHSM 271045Z AUTO 27004KT 230V300 4000 BR OVC003 M00/M00 Q1020 BECMG 6000 NSW        

LHSN 271045Z 31006KT 4000 BR FEW008 SCT020 OVC050 03/01 Q1018 TEMPO -RA RMK GRN